Main page
METAR-TAF:

METAR-TAF

Airports :

Biarritz Pays Basque Airport

Biarritz, France

latitude: 43-28N, longitude: 001-32W, elevation: 75 m

Current weather observation

The report was made 26 minutes ago, at 22:00 UTC
Wind 6 kt from the Northwest
Temperature 19°C
Humidity 83%
Pressure 1020 hPa
Visibility 10 km or more
Few clouds at a height of 1900 ft
Overcast at a height of 4000 ft

METAR: LFBZ 182200Z AUTO 31006KT 9999 FEW019 OVC040 19/16 Q1020 TEMPO 2500 -RADZ BKN005

Time: 00:26 (22:26 UTC)

Forecast

The report was made 3 hours and 34 minutes ago, at 18:52 UTC
Forecast valid from 18 at 18 UTC to 19 at 18 UTC
Wind 8 kt from the Northwest
Visibility 10 km or more
Broken clouds at a height of 2500 ft
Temporary
from 18 at 18 UTC to 19 at 03 UTC
Visibility: 2500 m
Broken clouds at a height of 500 ft
light rain, drizzle
Becoming
from 19 at 04 UTC to 19 at 06 UTC
Wind 5 kt from the East/Southeast

TAF: LFBZ 181852Z 1818/1918 31008KT 9999 BKN025 TEMPO 1818/1903 2500 -RADZ BKN005 BECMG 1904/1906 11005KT

Weather observations and forecasts of more than 4000 airports (METAR and TAF reports).

The available stations are represented by yellow and red dots on the map.

Hover mouse over dot to see the name of the station.

Then click to see weather observations and forecasts.

To change the map : click on the green buttons with a black cross to zoom in, on the green button with a dash to zoom out, or on the green arrows for adjacent maps.


METAR-TAF: